Time,TemperatureF,DewpointF,PressureIn,WindDirection,WindDirectionDegrees,WindSpeedMPH,WindSpeedGustMPH,Humidity,HourlyPrecipIn,Conditions,Clouds,dailyrainin,SoftwareType,DateUTC
2013-03-08 00:00:00,39.1,36.4,30.23,West,273,0.0,0.0,90,0.00,,,0.00,Wunderground v.1.15,2013-03-08 05:00:00,
2013-03-08 00:09:00,38.8,36.1,30.23,West,273,0.0,1.0,90,0.00,,,0.00,Wunderground v.1.15,2013-03-08 05:09:00,
2013-03-08 00:15:00,38.7,36.0,30.23,West,273,0.0,1.0,90,0.00,,,0.00,Wunderground v.1.15,2013-03-08 05:15:00,
2013-03-08 00:25:00,38.4,36.0,30.23,West,273,0.0,1.0,91,0.00,,,0.00,Wunderground v.1.15,2013-03-08 05:25:00,
2013-03-08 00:34:00,38.5,36.4,30.22,West,273,0.0,0.0,92,0.00,,,0.00,Wunderground v.1.15,2013-03-08 05:34:00,
2013-03-08 00:40:00,38.3,36.2,30.22,West,273,0.0,0.0,92,0.00,,,0.00,Wunderground v.1.15,2013-03-08 05:40:00,
2013-03-08 00:50:00,38.1,36.0,30.22,West,273,0.0,0.0,92,0.00,,,0.00,Wunderground v.1.15,2013-03-08 05:50:00,
2013-03-08 01:00:00,37.9,35.8,30.23,West,273,0.0,0.0,92,0.00,,,0.00,Wunderground v.1.15,2013-03-08 06:00:00,
2013-03-08 01:10:00,37.5,35.4,30.23,West,273,0.0,1.0,92,0.00,,,0.00,Wunderground v.1.15,2013-03-08 06:10:00,
2013-03-08 01:20:00,37.3,35.2,30.23,West,273,0.0,1.0,92,0.00,,,0.00,Wunderground v.1.15,2013-03-08 06:20:00,
2013-03-08 01:25:00,36.8,34.7,30.23,West,273,0.0,1.0,92,0.00,,,0.00,Wunderground v.1.15,2013-03-08 06:25:00,
2013-03-08 01:35:00,36.2,34.1,30.23,West,273,0.0,0.0,92,0.00,,,0.00,Wunderground v.1.15,2013-03-08 06:35:00,
2013-03-08 01:40:00,36.4,34.8,30.23,West,273,0.0,0.0,94,0.00,,,0.00,Wunderground v.1.15,2013-03-08 06:40:00,
2013-03-08 01:50:00,35.7,33.6,30.23,West,273,0.0,0.0,92,0.00,,,0.00,Wunderground v.1.15,2013-03-08 06:50:00,
2013-03-08 02:00:00,34.5,32.4,30.23,West,273,0.0,0.0,92,0.00,,,0.00,Wunderground v.1.15,2013-03-08 07:00:00,
2013-03-08 02:09:00,33.6,31.5,30.22,West,273,0.0,0.0,92,0.00,,,0.00,Wunderground v.1.15,2013-03-08 07:09:00,
2013-03-08 02:15:00,33.2,31.1,30.22,West,273,0.0,0.0,92,0.00,,,0.00,Wunderground v.1.15,2013-03-08 07:15:00,
2013-03-08 02:25:00,33.8,32.3,30.22,West,273,0.0,0.0,94,0.00,,,0.00,Wunderground v.1.15,2013-03-08 07:25:00,
2013-03-08 02:35:00,33.1,31.3,30.22,West,273,0.0,0.0,93,0.00,,,0.00,Wunderground v.1.15,2013-03-08 07:35:00,
2013-03-08 02:45:00,32.9,31.4,30.21,West,273,0.0,0.0,94,0.00,,,0.00,Wunderground v.1.15,2013-03-08 07:45:00,
2013-03-08 02:55:00,33.0,31.2,30.21,West,273,0.0,0.0,93,0.00,,,0.00,Wunderground v.1.15,2013-03-08 07:55:00,
2013-03-08 03:00:00,32.7,30.9,30.21,West,273,0.0,0.0,93,0.00,,,0.00,Wunderground v.1.15,2013-03-08 08:00:00,
2013-03-08 03:10:00,33.1,31.6,30.20,West,273,0.0,0.0,94,0.00,,,0.00,Wunderground v.1.15,2013-03-08 08:10:00,
2013-03-08 03:20:00,32.3,30.5,30.20,West,273,0.0,0.0,93,0.00,,,0.00,Wunderground v.1.15,2013-03-08 08:20:00,
2013-03-08 03:30:00,32.1,30.8,30.20,West,273,0.0,0.0,95,0.00,,,0.00,Wunderground v.1.15,2013-03-08 08:30:00,
2013-03-08 03:40:00,32.3,30.8,30.20,West,273,0.0,0.0,94,0.00,,,0.00,Wunderground v.1.15,2013-03-08 08:40:00,
2013-03-08 03:45:00,32.4,31.1,30.20,West,273,0.0,0.0,95,0.00,,,0.00,Wunderground v.1.15,2013-03-08 08:45:00,
2013-03-08 03:55:00,31.9,30.4,30.20,West,273,0.0,0.0,94,0.00,,,0.00,Wunderground v.1.15,2013-03-08 08:55:00,
2013-03-08 04:05:00,31.1,29.6,30.20,West,273,0.0,0.0,94,0.00,,,0.00,Wunderground v.1.15,2013-03-08 09:05:00,
2013-03-08 04:15:00,32.0,30.7,30.20,West,273,0.0,0.0,95,0.00,,,0.00,Wunderground v.1.15,2013-03-08 09:15:00,
2013-03-08 04:25:00,33.3,32.3,30.20,West,273,0.0,0.0,96,0.00,,,0.00,Wunderground v.1.15,2013-03-08 09:25:00,
2013-03-08 04:35:00,32.8,31.5,30.20,West,273,0.0,0.0,95,0.00,,,0.00,Wunderground v.1.15,2013-03-08 09:35:00,
2013-03-08 04:45:00,32.1,30.6,30.20,West,273,0.0,0.0,94,0.00,,,0.00,Wunderground v.1.15,2013-03-08 09:45:00,
2013-03-08 04:55:00,32.3,31.0,30.20,West,273,0.0,0.0,95,0.00,,,0.00,Wunderground v.1.15,2013-03-08 09:55:00,
2013-03-08 05:05:00,31.5,30.0,30.21,West,273,0.0,0.0,94,0.00,,,0.00,Wunderground v.1.15,2013-03-08 10:05:00,
2013-03-08 05:15:00,30.7,29.2,30.21,West,273,0.0,0.0,94,0.00,,,0.00,Wunderground v.1.15,2013-03-08 10:15:00,
2013-03-08 05:20:00,30.6,29.3,30.21,West,273,0.0,0.0,95,0.00,,,0.00,Wunderground v.1.15,2013-03-08 10:20:00,
2013-03-08 05:30:00,31.3,30.3,30.22,West,273,0.0,0.0,96,0.00,,,0.00,Wunderground v.1.15,2013-03-08 10:30:00,
2013-03-08 05:40:00,32.0,31.0,30.22,West,273,0.0,0.0,96,0.00,,,0.00,Wunderground v.1.15,2013-03-08 10:40:00,
2013-03-08 05:50:00,31.6,30.6,30.22,West,273,0.0,0.0,96,0.00,,,0.00,Wunderground v.1.15,2013-03-08 10:50:00,
2013-03-08 06:00:00,30.7,29.4,30.21,West,273,0.0,0.0,95,0.00,,,0.00,Wunderground v.1.15,2013-03-08 11:00:00,
2013-03-08 06:05:00,30.5,29.2,30.21,West,273,0.0,0.0,95,0.00,,,0.00,Wunderground v.1.15,2013-03-08 11:05:00,
2013-03-08 06:15:00,30.5,29.2,30.21,West,273,0.0,0.0,95,0.00,,,0.00,Wunderground v.1.15,2013-03-08 11:15:00,
2013-03-08 06:25:00,29.9,28.4,30.22,West,273,0.0,0.0,94,0.00,,,0.00,Wunderground v.1.15,2013-03-08 11:25:00,
2013-03-08 06:35:00,29.4,28.1,30.22,West,273,0.0,0.0,95,0.00,,,0.00,Wunderground v.1.15,2013-03-08 11:35:00,
2013-03-08 06:45:00,29.3,28.0,30.22,West,273,0.0,0.0,95,0.00,,,0.00,Wunderground v.1.15,2013-03-08 11:45:00,
2013-03-08 06:55:00,29.6,28.3,30.23,West,273,0.0,0.0,95,0.00,,,0.00,Wunderground v.1.15,2013-03-08 11:55:00,
2013-03-08 07:05:00,31.6,30.6,30.22,West,273,0.0,0.0,96,0.00,,,0.00,Wunderground v.1.15,2013-03-08 12:05:00,
2013-03-08 07:15:00,33.9,32.9,30.23,West,273,0.0,0.0,96,0.00,,,0.00,Wunderground v.1.15,2013-03-08 12:15:00,
2013-03-08 07:25:00,36.1,35.1,30.24,WSW,246,0.0,0.0,96,0.00,,,0.00,Wunderground v.1.15,2013-03-08 12:25:00,
2013-03-08 07:35:00,38.6,37.6,30.24,WSW,245,0.0,0.0,96,0.00,,,0.00,Wunderground v.1.15,2013-03-08 12:35:00,
2013-03-08 07:45:00,41.4,40.1,30.24,WSW,245,0.0,0.0,95,0.00,,,0.00,Wunderground v.1.15,2013-03-08 12:45:00,
2013-03-08 07:55:00,43.6,41.7,30.24,WSW,245,0.0,0.0,93,0.00,,,0.00,Wunderground v.1.15,2013-03-08 12:55:00,
2013-03-08 08:00:00,44.5,42.6,30.24,WSW,245,0.0,0.0,93,0.00,,,0.00,Wunderground v.1.15,2013-03-08 13:00:00,
2013-03-08 08:10:00,46.8,44.9,30.25,NE,36,0.0,2.0,93,0.00,,,0.00,Wunderground v.1.15,2013-03-08 13:10:00,
2013-03-08 08:20:00,48.0,44.6,30.25,North,8,1.0,1.0,88,0.00,,,0.00,Wunderground v.1.15,2013-03-08 13:20:00,
2013-03-08 08:30:00,49.8,45.5,30.25,North,354,1.0,2.0,85,0.00,,,0.00,Wunderground v.1.15,2013-03-08 13:30:00,
2013-03-08 08:40:00,51.3,45.0,30.25,NW,321,1.0,1.0,79,0.00,,,0.00,Wunderground v.1.15,2013-03-08 13:40:00,
2013-03-08 08:50:00,52.7,45.7,30.25,NNW,336,1.0,2.0,77,0.00,,,0.00,Wunderground v.1.15,2013-03-08 13:50:00,
2013-03-08 09:00:00,54.0,45.9,30.25,NW,321,1.0,1.0,74,0.00,,,0.00,Wunderground v.1.15,2013-03-08 14:00:00,
2013-03-08 09:10:00,55.9,46.3,30.25,NNE,31,1.0,2.0,70,0.00,,,0.00,Wunderground v.1.15,2013-03-08 14:10:00,
2013-03-08 09:15:00,56.6,45.8,30.25,North,354,1.0,2.0,67,0.00,,,0.00,Wunderground v.1.15,2013-03-08 14:15:00,
2013-03-08 09:25:00,58.4,46.3,30.25,ENE,64,1.0,1.0,64,0.00,,,0.00,Wunderground v.1.15,2013-03-08 14:25:00,
2013-03-08 09:35:00,60.2,46.3,30.25,NNE,27,1.0,1.0,60,0.00,,,0.00,Wunderground v.1.15,2013-03-08 14:35:00,
2013-03-08 09:40:00,61.1,44.3,30.25,NNW,335,1.0,1.0,54,0.00,,,0.00,Wunderground v.1.15,2013-03-08 14:40:00,
2013-03-08 09:45:00,61.2,43.4,30.25,NE,44,1.0,1.0,52,0.00,,,0.00,Wunderground v.1.15,2013-03-08 14:45:00,
2013-03-08 09:55:00,61.7,41.3,30.25,NNW,335,2.0,3.0,47,0.00,,,0.00,Wunderground v.1.15,2013-03-08 14:55:00,
2013-03-08 10:00:00,62.4,40.8,30.25,NNE,22,3.0,6.0,45,0.00,,,0.00,Wunderground v.1.15,2013-03-08 15:00:00,
2013-03-08 10:05:00,62.6,40.4,30.25,NW,318,4.0,6.0,44,0.00,,,0.00,Wunderground v.1.15,2013-03-08 15:05:00,
2013-03-08 10:15:00,63.2,39.7,30.25,NNE,27,3.0,4.0,42,0.00,,,0.00,Wunderground v.1.15,2013-03-08 15:15:00,
2013-03-08 10:25:00,63.8,39.0,30.25,NNW,337,3.0,5.0,40,0.00,,,0.00,Wunderground v.1.15,2013-03-08 15:25:00,
2013-03-08 10:30:00,63.9,40.3,30.25,North,360,3.0,3.0,42,0.00,,,0.00,Wunderground v.1.15,2013-03-08 15:30:00,
2013-03-08 10:40:00,64.6,37.7,30.25,NE,44,3.0,5.0,37,0.00,,,0.00,Wunderground v.1.15,2013-03-08 15:40:00,
2013-03-08 10:50:00,65.2,38.3,30.25,NNE,23,4.0,4.0,37,0.00,,,0.00,Wunderground v.1.15,2013-03-08 15:50:00,
2013-03-08 10:55:00,65.7,38.7,30.25,WNW,295,4.0,4.0,37,0.00,,,0.00,Wunderground v.1.15,2013-03-08 15:55:00,
2013-03-08 11:05:00,65.4,37.0,30.25,NNE,15,4.0,5.0,35,0.00,,,0.00,Wunderground v.1.15,2013-03-08 16:05:00,
2013-03-08 11:15:00,65.9,38.2,30.24,ENE,72,4.0,8.0,36,0.00,,,0.00,Wunderground v.1.15,2013-03-08 16:15:00,
2013-03-08 11:20:00,66.1,39.1,30.24,NE,49,4.0,8.0,37,0.00,,,0.00,Wunderground v.1.15,2013-03-08 16:20:00,
2013-03-08 11:30:00,66.4,37.9,30.24,NE,37,3.0,7.0,35,0.00,,,0.00,Wunderground v.1.15,2013-03-08 16:30:00,
2013-03-08 11:40:00,66.7,37.4,30.24,NNE,30,5.0,6.0,34,0.00,,,0.00,Wunderground v.1.15,2013-03-08 16:40:00,
2013-03-08 11:45:00,67.0,39.1,30.24,NNW,339,4.0,6.0,36,0.00,,,0.00,Wunderground v.1.15,2013-03-08 16:45:00,
2013-03-08 11:55:00,68.4,39.7,30.23,WSW,240,3.0,4.0,35,0.00,,,0.00,Wunderground v.1.15,2013-03-08 16:55:00,
2013-03-08 12:05:00,68.8,39.3,30.23,NNE,32,3.0,7.0,34,0.00,,,0.00,Wunderground v.1.15,2013-03-08 17:05:00,
2013-03-08 12:15:00,68.7,38.4,30.23,NNE,29,4.0,9.0,33,0.00,,,0.00,Wunderground v.1.15,2013-03-08 17:15:00,
2013-03-08 12:25:00,69.6,36.8,30.23,East,86,3.0,9.0,30,0.00,,,0.00,Wunderground v.1.15,2013-03-08 17:25:00,
2013-03-08 12:30:00,69.3,37.3,30.22,NNE,32,3.0,6.0,31,0.00,,,0.00,Wunderground v.1.15,2013-03-08 17:30:00,
2013-03-08 12:40:00,69.9,37.0,30.22,East,90,3.0,3.0,30,0.00,,,0.00,Wunderground v.1.15,2013-03-08 17:40:00,
2013-03-08 12:50:00,70.6,37.6,30.21,NE,51,4.0,4.0,30,0.00,,,0.00,Wunderground v.1.15,2013-03-08 17:50:00,
2013-03-08 12:55:00,71.0,40.4,30.20,WSW,243,3.0,4.0,33,0.00,,,0.00,Wunderground v.1.15,2013-03-08 17:55:00,
2013-03-08 13:00:00,71.9,38.8,30.20,North,1,2.0,2.0,30,0.00,,,0.00,Wunderground v.1.15,2013-03-08 18:00:00,
2013-03-08 13:10:00,71.9,38.8,30.20,NNE,23,4.0,4.0,30,0.00,,,0.00,Wunderground v.1.15,2013-03-08 18:10:00,
2013-03-08 13:15:00,71.5,37.6,30.20,NW,323,4.0,9.0,29,0.00,,,0.00,Wunderground v.1.15,2013-03-08 18:15:00,
2013-03-08 13:25:00,72.6,38.5,30.19,WNW,300,2.0,3.0,29,0.00,,,0.00,Wunderground v.1.15,2013-03-08 18:25:00,
2013-03-08 13:35:00,72.9,39.6,30.18,NNE,27,3.0,4.0,30,0.00,,,0.00,Wunderground v.1.15,2013-03-08 18:35:00,
2013-03-08 13:45:00,72.9,38.8,30.18,NE,51,4.0,5.0,29,0.00,,,0.00,Wunderground v.1.15,2013-03-08 18:45:00,
2013-03-08 13:55:00,73.6,39.4,30.17,WSW,249,3.0,4.0,29,0.00,,,0.00,Wunderground v.1.15,2013-03-08 18:55:00,
2013-03-08 14:05:00,74.4,39.2,30.17,SW,231,2.0,11.0,28,0.00,,,0.00,Wunderground v.1.15,2013-03-08 19:05:00,
2013-03-08 14:15:00,75.0,37.8,30.17,East,88,2.0,5.0,26,0.00,,,0.00,Wunderground v.1.15,2013-03-08 19:15:00,
2013-03-08 14:25:00,74.9,37.7,30.16,North,10,3.0,11.0,26,0.00,,,0.00,Wunderground v.1.15,2013-03-08 19:25:00,
2013-03-08 14:30:00,74.8,35.6,30.16,NW,314,4.0,4.0,24,0.00,,,0.00,Wunderground v.1.15,2013-03-08 19:30:00,
2013-03-08 14:40:00,74.4,36.3,30.16,NNW,327,3.0,3.0,25,0.00,,,0.00,Wunderground v.1.15,2013-03-08 19:40:00,
2013-03-08 14:50:00,75.3,34.9,30.15,NE,38,2.0,2.0,23,0.00,,,0.00,Wunderground v.1.15,2013-03-08 19:50:00,
2013-03-08 14:55:00,75.1,34.8,30.15,NE,40,2.0,4.0,23,0.00,,,0.00,Wunderground v.1.15,2013-03-08 19:55:00,
2013-03-08 15:05:00,75.7,35.3,30.15,NW,325,3.0,4.0,23,0.00,,,0.00,Wunderground v.1.15,2013-03-08 20:05:00,
2013-03-08 15:15:00,74.7,34.4,30.15,NNW,348,3.0,9.0,23,0.00,,,0.00,Wunderground v.1.15,2013-03-08 20:15:00,
2013-03-08 15:25:00,75.9,35.4,30.14,SSW,211,1.0,2.0,23,0.00,,,0.00,Wunderground v.1.15,2013-03-08 20:25:00,
2013-03-08 15:35:00,76.1,34.5,30.14,NE,47,2.0,3.0,22,0.00,,,0.00,Wunderground v.1.15,2013-03-08 20:35:00,
2013-03-08 15:40:00,75.8,34.2,30.14,NE,36,3.0,4.0,22,0.00,,,0.00,Wunderground v.1.15,2013-03-08 20:40:00,
2013-03-08 15:45:00,75.5,34.0,30.14,NNE,26,3.0,4.0,22,0.00,,,0.00,Wunderground v.1.15,2013-03-08 20:45:00,
2013-03-08 15:55:00,75.9,34.3,30.14,WNW,288,2.0,3.0,22,0.00,,,0.00,Wunderground v.1.15,2013-03-08 20:55:00,
2013-03-08 16:05:00,76.0,33.2,30.14,NNW,333,1.0,9.0,21,0.00,,,0.00,Wunderground v.1.15,2013-03-08 21:05:00,
2013-03-08 16:15:00,76.0,34.4,30.14,West,281,1.0,9.0,22,0.00,,,0.00,Wunderground v.1.15,2013-03-08 21:15:00,
2013-03-08 16:25:00,75.8,34.2,30.14,NNW,339,1.0,9.0,22,0.00,,,0.00,Wunderground v.1.15,2013-03-08 21:25:00,
2013-03-08 16:30:00,76.5,32.4,30.14,NNE,29,1.0,1.0,20,0.00,,,0.00,Wunderground v.1.15,2013-03-08 21:30:00,
2013-03-08 16:40:00,75.8,31.8,30.13,NNE,22,1.0,2.0,20,0.00,,,0.00,Wunderground v.1.15,2013-03-08 21:40:00,
2013-03-08 16:50:00,75.2,32.6,30.13,NE,44,2.0,2.0,21,0.00,,,0.00,Wunderground v.1.15,2013-03-08 21:50:00,
2013-03-08 16:55:00,75.5,32.8,30.13,NNE,19,1.0,2.0,21,0.00,,,0.00,Wunderground v.1.15,2013-03-08 21:55:00,
2013-03-08 17:05:00,75.6,31.7,30.14,NE,53,1.0,9.0,20,0.00,,,0.00,Wunderground v.1.15,2013-03-08 22:05:00,
2013-03-08 17:15:00,74.5,33.1,30.14,NNE,18,2.0,9.0,22,0.00,,,0.00,Wunderground v.1.15,2013-03-08 22:15:00,
2013-03-08 17:25:00,74.0,32.7,30.14,NNW,337,2.0,9.0,22,0.00,,,0.00,Wunderground v.1.15,2013-03-08 22:25:00,
2013-03-08 17:35:00,73.6,31.2,30.14,North,8,2.0,2.0,21,0.00,,,0.00,Wunderground v.1.15,2013-03-08 22:35:00,
2013-03-08 17:40:00,72.9,31.8,30.14,NW,325,1.0,1.0,22,0.00,,,0.00,Wunderground v.1.15,2013-03-08 22:40:00,
2013-03-08 17:45:00,72.4,30.2,30.14,NNW,338,1.0,1.0,21,0.00,,,0.00,Wunderground v.1.15,2013-03-08 22:45:00,
2013-03-08 17:55:00,71.6,30.7,30.14,NNW,338,1.0,1.0,22,0.00,,,0.00,Wunderground v.1.15,2013-03-08 22:55:00,
2013-03-08 18:05:00,69.9,32.5,30.14,NNW,345,0.0,6.0,25,0.00,,,0.00,Wunderground v.1.15,2013-03-08 23:05:00,
2013-03-08 18:15:00,68.1,33.7,30.15,NNW,344,0.0,6.0,28,0.00,,,0.00,Wunderground v.1.15,2013-03-08 23:15:00,
2013-03-08 18:25:00,66.0,33.7,30.15,NNW,345,0.0,6.0,30,0.00,,,0.00,Wunderground v.1.15,2013-03-08 23:25:00,
2013-03-08 18:35:00,62.8,34.7,30.16,NNW,345,0.0,0.0,35,0.00,,,0.00,Wunderground v.1.15,2013-03-08 23:35:00,
2013-03-08 18:45:00,59.4,34.4,30.16,NNW,345,0.0,0.0,39,0.00,,,0.00,Wunderground v.1.15,2013-03-08 23:45:00,
2013-03-08 18:55:00,56.6,34.3,30.17,NNW,344,0.0,0.0,43,0.00,,,0.00,Wunderground v.1.15,2013-03-08 23:55:00,
2013-03-08 19:00:00,55.1,34.1,30.17,NNW,345,0.0,0.0,45,0.00,,,0.00,Wunderground v.1.15,2013-03-09 00:00:00,
2013-03-08 19:10:00,52.9,34.2,30.17,NE,50,0.0,6.0,49,0.00,,,0.00,Wunderground v.1.15,2013-03-09 00:10:00,
2013-03-08 19:20:00,51.7,36.9,30.18,ENE,65,1.0,6.0,57,0.00,,,0.00,Wunderground v.1.15,2013-03-09 00:20:00,
2013-03-08 19:30:00,56.0,40.5,30.18,ENE,58,2.0,2.0,56,0.00,,,0.00,Wunderground v.1.15,2013-03-09 00:30:00,
2013-03-08 19:35:00,57.6,42.5,30.18,ENE,72,2.0,4.0,57,0.00,,,0.00,Wunderground v.1.15,2013-03-09 00:35:00,
2013-03-08 19:45:00,59.0,43.8,30.18,NE,38,3.0,3.0,57,0.00,,,0.00,Wunderground v.1.15,2013-03-09 00:45:00,
2013-03-08 19:55:00,58.8,43.6,30.20,NNW,341,1.0,2.0,57,0.00,,,0.00,Wunderground v.1.15,2013-03-09 00:55:00,
2013-03-08 20:00:00,58.3,42.7,30.20,NW,311,0.0,0.0,56,0.00,,,0.00,Wunderground v.1.15,2013-03-09 01:00:00,
2013-03-08 20:10:00,58.4,44.1,30.20,NE,43,1.0,1.0,59,0.00,,,0.00,Wunderground v.1.15,2013-03-09 01:10:00,
2013-03-08 20:20:00,58.4,44.6,30.21,NW,326,0.0,0.0,60,0.00,,,0.00,Wunderground v.1.15,2013-03-09 01:20:00,
2013-03-08 20:30:00,57.8,44.9,30.21,NE,45,0.0,1.0,62,0.00,,,0.00,Wunderground v.1.15,2013-03-09 01:30:00,
2013-03-08 20:40:00,57.0,44.5,30.21,NE,52,0.0,0.0,63,0.00,,,0.00,Wunderground v.1.15,2013-03-09 01:40:00,
2013-03-08 20:50:00,55.2,44.0,30.22,ENE,72,0.0,0.0,66,0.00,,,0.00,Wunderground v.1.15,2013-03-09 01:50:00,
2013-03-08 20:55:00,54.4,43.7,30.22,ENE,72,0.0,0.0,67,0.00,,,0.00,Wunderground v.1.15,2013-03-09 01:55:00,
2013-03-08 21:05:00,53.6,44.0,30.23,ENE,71,0.0,6.0,70,0.00,,,0.00,Wunderground v.1.15,2013-03-09 02:05:00,
2013-03-08 21:15:00,52.3,42.4,30.23,ENE,70,0.0,6.0,69,0.00,,,0.00,Wunderground v.1.15,2013-03-09 02:15:00,
2013-03-08 21:25:00,50.3,40.9,30.23,ENE,71,0.0,6.0,70,0.00,,,0.00,Wunderground v.1.15,2013-03-09 02:25:00,
2013-03-08 21:30:00,49.0,40.0,30.22,ENE,71,0.0,0.0,71,0.00,,,0.00,Wunderground v.1.15,2013-03-09 02:30:00,
2013-03-08 21:40:00,48.1,41.2,30.22,ENE,71,0.0,0.0,77,0.00,,,0.00,Wunderground v.1.15,2013-03-09 02:40:00,
2013-03-08 21:50:00,47.9,42.3,30.22,ENE,70,0.0,0.0,81,0.00,,,0.00,Wunderground v.1.15,2013-03-09 02:50:00,
2013-03-08 22:00:00,48.3,43.1,30.22,ENE,72,0.0,0.0,82,0.00,,,0.00,Wunderground v.1.15,2013-03-09 03:00:00,
2013-03-08 22:10:00,47.7,42.2,30.22,ENE,72,0.0,3.0,81,0.00,,,0.00,Wunderground v.1.15,2013-03-09 03:10:00,
2013-03-08 22:15:00,46.7,40.9,30.22,ENE,72,0.0,3.0,80,0.00,,,0.00,Wunderground v.1.15,2013-03-09 03:15:00,
2013-03-08 22:25:00,45.0,39.2,30.23,ENE,72,0.0,3.0,80,0.00,,,0.00,Wunderground v.1.15,2013-03-09 03:25:00,
2013-03-08 22:35:00,45.5,41.9,30.23,ENE,72,0.0,0.0,87,0.00,,,0.00,Wunderground v.1.15,2013-03-09 03:35:00,
2013-03-08 22:40:00,46.2,42.5,30.23,ENE,72,0.0,0.0,87,0.00,,,0.00,Wunderground v.1.15,2013-03-09 03:40:00,
2013-03-08 22:50:00,46.0,42.9,30.23,ENE,72,0.0,0.0,89,0.00,,,0.00,Wunderground v.1.15,2013-03-09 03:50:00,
2013-03-08 23:00:00,45.5,41.3,30.23,ENE,72,0.0,0.0,85,0.00,,,0.00,Wunderground v.1.15,2013-03-09 04:00:00,
2013-03-08 23:05:00,44.8,40.3,30.23,ENE,72,0.0,0.0,84,0.00,,,0.00,Wunderground v.1.15,2013-03-09 04:05:00,
2013-03-08 23:15:00,43.9,40.0,30.23,ENE,72,0.0,0.0,86,0.00,,,0.00,Wunderground v.1.15,2013-03-09 04:15:00,
2013-03-08 23:25:00,43.2,39.6,30.23,ENE,72,0.0,0.0,87,0.00,,,0.00,Wunderground v.1.15,2013-03-09 04:25:00,
2013-03-08 23:30:00,43.3,40.0,30.22,ENE,72,0.0,0.0,88,0.00,,,0.00,Wunderground v.1.15,2013-03-09 04:30:00,
2013-03-08 23:40:00,42.5,39.2,30.23,ENE,72,0.0,0.0,88,0.00,,,0.00,Wunderground v.1.15,2013-03-09 04:40:00,
2013-03-08 23:50:00,42.4,39.4,30.23,ENE,72,0.0,0.0,89,0.00,,,0.00,Wunderground v.1.15,2013-03-09 04:50:00,